createdAt,value
2022-08-17T00:00:52.348Z,88.77
2022-08-17T00:06:10.838Z,88.98
2022-08-17T00:11:34.582Z,89.52
2022-08-17T00:16:56.340Z,89.36
2022-08-17T00:22:34.903Z,89.17
2022-08-17T00:27:37.331Z,89.61
2022-08-17T00:33:14.033Z,89.39
2022-08-17T00:38:24.394Z,89.51
2022-08-17T00:44:01.895Z,89.45
2022-08-17T00:49:24.184Z,89.61
2022-08-17T00:54:42.550Z,89.50
2022-08-17T01:00:03.277Z,89.64
2022-08-17T01:05:16.002Z,89.88
2022-08-17T01:11:00.186Z,89.88
2022-08-17T01:16:28.191Z,90.31
2022-08-17T01:21:50.905Z,90.60
2022-08-17T01:26:57.656Z,90.67
2022-08-17T01:32:16.225Z,90.81
2022-08-17T01:37:32.854Z,90.66
2022-08-17T01:42:49.962Z,90.29
2022-08-17T01:48:02.759Z,90.35
2022-08-17T01:53:23.586Z,90.43
2022-08-17T01:58:41.757Z,90.65
2022-08-17T02:03:59.680Z,91.06
2022-08-17T02:09:07.670Z,91.03
2022-08-17T02:14:37.510Z,91.31
2022-08-17T02:19:50.350Z,91.57
2022-08-17T02:25:02.134Z,91.41
2022-08-17T02:30:59.656Z,91.45
2022-08-17T02:35:43.867Z,91.69
2022-08-17T02:40:52.718Z,91.41
2022-08-17T02:46:09.112Z,91.68
2022-08-17T02:51:23.667Z,91.83
2022-08-17T02:56:48.237Z,100.00
2022-08-17T03:01:58.868Z,100.00
2022-08-17T03:07:15.285Z,100.00
2022-08-17T03:12:22.610Z,100.00
2022-08-17T03:17:31.390Z,100.00
2022-08-17T03:22:53.049Z,100.00
2022-08-17T03:28:00.429Z,100.00
2022-08-17T03:33:16.742Z,100.00
2022-08-17T03:38:21.383Z,100.00
2022-08-17T03:43:37.085Z,100.00
2022-08-17T03:49:04.169Z,100.00
2022-08-17T03:54:33.039Z,100.00
2022-08-17T03:59:35.777Z,100.00
2022-08-17T04:04:38.336Z,100.00
2022-08-17T04:09:40.185Z,100.00
2022-08-17T04:14:53.286Z,100.00
2022-08-17T04:19:57.186Z,100.00
2022-08-17T04:24:59.490Z,100.00
2022-08-17T04:30:01.389Z,100.00
2022-08-17T04:35:03.029Z,100.00
2022-08-17T04:40:27.437Z,100.00
2022-08-17T04:45:32.119Z,100.00
2022-08-17T04:50:36.497Z,100.00
2022-08-17T04:55:42.460Z,100.00
2022-08-17T05:00:44.014Z,100.00
2022-08-17T05:05:49.693Z,100.00
2022-08-17T05:10:55.000Z,100.00
2022-08-17T05:15:59.665Z,100.00
2022-08-17T05:21:02.884Z,100.00
2022-08-17T05:26:08.584Z,100.00
2022-08-17T05:31:13.960Z,100.00
2022-08-17T05:36:42.397Z,100.00
2022-08-17T05:41:37.538Z,100.00
2022-08-17T05:46:43.655Z,100.00
2022-08-17T05:51:52.314Z,93.73
2022-08-17T05:57:12.601Z,93.51
2022-08-17T06:02:55.849Z,93.18
2022-08-17T06:08:20.690Z,92.95
2022-08-17T06:13:40.544Z,92.53
2022-08-17T06:18:46.596Z,92.25
2022-08-17T06:23:59.442Z,91.81
2022-08-17T06:29:18.753Z,92.07
2022-08-17T06:34:25.938Z,91.96
2022-08-17T06:39:54.721Z,92.08
2022-08-17T06:45:17.547Z,91.50
2022-08-17T06:50:38.254Z,91.76
2022-08-17T06:55:56.381Z,91.37
2022-08-17T07:01:21.772Z,89.43
2022-08-17T07:06:30.524Z,86.42
2022-08-17T07:12:13.056Z,84.22
2022-08-17T07:17:20.894Z,81.88
2022-08-17T07:22:55.217Z,79.75
2022-08-17T07:28:00.483Z,78.88
2022-08-17T07:33:15.743Z,79.11
2022-08-17T07:38:26.823Z,79.32
2022-08-17T07:43:40.326Z,79.89
2022-08-17T07:48:52.713Z,79.52
2022-08-17T07:54:27.848Z,78.97
2022-08-17T08:00:31.994Z,78.72
2022-08-17T08:06:53.259Z,79.27
2022-08-17T08:33:06.255Z,80.14
2022-08-17T08:45:06.931Z,77.22
2022-08-17T08:50:37.429Z,76.10
2022-08-17T08:56:11.716Z,75.09
2022-08-17T09:01:35.083Z,74.27
2022-08-17T09:07:12.711Z,73.25
2022-08-17T09:12:22.664Z,72.21
2022-08-17T09:17:47.405Z,71.34
2022-08-17T09:23:58.306Z,70.52
2022-08-17T09:29:36.629Z,68.35
2022-08-17T09:47:38.227Z,65.61
2022-08-17T09:52:59.166Z,65.77
2022-08-17T09:58:25.648Z,65.63
2022-08-17T10:03:42.445Z,65.14
2022-08-17T10:09:08.846Z,64.37
2022-08-17T10:14:43.549Z,61.94
2022-08-17T10:20:15.132Z,60.69
2022-08-17T10:25:53.946Z,59.44
2022-08-17T10:31:33.557Z,59.15
2022-08-17T10:36:57.618Z,57.89
2022-08-17T10:42:16.061Z,58.14
2022-08-17T10:48:06.104Z,58.55
2022-08-17T10:53:08.785Z,58.90
2022-08-17T10:58:21.896Z,59.58
2022-08-17T11:03:26.603Z,59.82
2022-08-17T11:09:00.869Z,60.08
2022-08-17T11:14:21.743Z,59.86
2022-08-17T11:19:42.117Z,59.20
2022-08-17T11:24:48.239Z,59.64
2022-08-17T11:30:01.529Z,58.76
2022-08-17T11:35:22.418Z,57.45
2022-08-17T11:40:54.938Z,57.89
2022-08-17T11:46:53.969Z,57.43
2022-08-17T11:52:03.969Z,56.20
2022-08-17T11:57:27.322Z,54.76
2022-08-17T12:02:35.362Z,54.72
2022-08-17T12:07:42.966Z,53.16
2022-08-17T12:12:46.695Z,52.56
2022-08-17T12:17:55.689Z,51.73
2022-08-17T12:23:25.595Z,50.92
2022-08-17T12:28:36.133Z,50.43
2022-08-17T12:33:43.878Z,50.40
2022-08-17T12:38:50.309Z,51.35
2022-08-17T12:43:58.725Z,52.66
2022-08-17T12:49:13.658Z,53.11
2022-08-17T12:54:31.467Z,53.67
2022-08-17T12:59:33.227Z,53.98
2022-08-17T13:04:39.336Z,54.48
2022-08-17T13:09:51.245Z,55.43
2022-08-17T13:14:52.879Z,56.15
2022-08-17T13:19:54.780Z,56.80
2022-08-17T13:25:03.714Z,57.04
2022-08-17T13:30:12.041Z,56.76
2022-08-17T13:35:36.419Z,56.52
2022-08-17T13:40:50.073Z,56.37
2022-08-17T13:45:56.078Z,56.12
2022-08-17T13:50:57.771Z,54.69
2022-08-17T13:56:37.746Z,54.70
2022-08-17T14:01:53.381Z,54.04
2022-08-17T14:07:01.462Z,52.99
2022-08-17T14:12:05.923Z,51.90
2022-08-17T14:17:07.989Z,52.43
2022-08-17T14:22:18.359Z,55.95
2022-08-17T14:27:21.027Z,57.89
2022-08-17T14:32:29.461Z,58.47
2022-08-17T14:37:35.097Z,59.26
2022-08-17T14:43:05.531Z,60.31
2022-08-17T14:48:46.256Z,60.82
2022-08-17T14:53:50.425Z,58.21
2022-08-17T14:58:52.158Z,60.57
2022-08-17T15:03:53.976Z,64.97
2022-08-17T15:09:17.721Z,68.49
2022-08-17T15:14:20.235Z,71.11
2022-08-17T15:19:22.201Z,74.51
2022-08-17T15:24:24.025Z,76.99
2022-08-17T15:29:25.546Z,78.33
2022-08-17T15:34:27.114Z,79.74
2022-08-17T15:39:28.758Z,80.38
2022-08-17T15:44:34.760Z,81.24
2022-08-17T15:49:40.761Z,82.21
2022-08-17T15:54:42.767Z,82.57
2022-08-17T15:59:52.076Z,83.10
2022-08-17T16:05:13.932Z,83.60
2022-08-17T16:10:19.176Z,84.05
2022-08-17T16:15:23.123Z,84.57
2022-08-17T16:20:25.177Z,84.79
2022-08-17T16:25:49.694Z,85.47
2022-08-17T16:30:52.898Z,85.57
2022-08-17T16:36:03.400Z,85.79
2022-08-17T16:41:06.326Z,86.05
2022-08-17T16:46:07.925Z,86.54
2022-08-17T16:51:09.701Z,86.77
2022-08-17T16:56:11.575Z,86.84
2022-08-17T17:01:13.786Z,86.83
2022-08-17T17:06:22.769Z,86.94
2022-08-17T17:11:40.905Z,87.19
2022-08-17T17:16:57.597Z,87.50
2022-08-17T17:22:12.574Z,87.48
2022-08-17T17:27:47.575Z,87.31
2022-08-17T17:33:13.592Z,87.11
2022-08-17T17:38:29.195Z,87.13
2022-08-17T17:43:40.599Z,86.95
2022-08-17T17:48:42.580Z,86.71
2022-08-17T17:53:59.436Z,86.80
2022-08-17T17:59:26.637Z,86.94
2022-08-17T18:04:58.752Z,87.17
2022-08-17T18:10:19.427Z,87.80
2022-08-17T18:15:29.527Z,87.65
2022-08-17T18:20:43.242Z,87.54
2022-08-17T18:25:54.461Z,87.63
2022-08-17T18:31:07.876Z,88.07
2022-08-17T18:36:11.354Z,88.24
2022-08-17T18:41:30.267Z,88.17
2022-08-17T18:46:36.576Z,88.54
2022-08-17T18:51:43.191Z,88.49
2022-08-17T18:57:00.775Z,89.17
2022-08-17T19:02:20.737Z,89.48
2022-08-17T19:07:48.196Z,89.65
2022-08-17T19:35:05.971Z,89.72
2022-08-17T19:40:29.261Z,89.84
2022-08-17T19:45:56.925Z,89.68
2022-08-17T19:51:09.161Z,90.01
2022-08-17T19:56:25.618Z,89.94
2022-08-17T20:01:39.845Z,90.08
2022-08-17T20:06:46.664Z,90.10
2022-08-17T20:11:58.551Z,90.65
2022-08-17T20:17:03.026Z,90.48
2022-08-17T20:22:17.487Z,90.91
2022-08-17T20:27:29.512Z,90.90
2022-08-17T20:32:53.681Z,91.32
2022-08-17T20:37:59.105Z,91.26
2022-08-17T20:43:29.613Z,91.49
2022-08-17T20:48:39.856Z,91.47
2022-08-17T20:53:48.024Z,91.69
2022-08-17T20:58:49.638Z,91.34
2022-08-17T21:03:52.648Z,91.83
2022-08-17T21:09:15.744Z,91.64
2022-08-17T21:14:43.057Z,91.66
2022-08-17T21:20:11.923Z,92.14
2022-08-17T21:25:41.772Z,92.12
2022-08-17T21:30:49.044Z,91.84
2022-08-17T21:35:52.260Z,92.23
2022-08-17T21:40:55.058Z,92.11
2022-08-17T21:46:01.039Z,92.56
2022-08-17T21:51:17.641Z,92.47
2022-08-17T21:56:30.216Z,92.62
2022-08-17T22:01:34.644Z,92.83
2022-08-17T22:06:41.222Z,93.16
2022-08-17T22:12:02.111Z,92.93
2022-08-17T22:17:21.053Z,93.50
2022-08-17T22:22:31.190Z,93.25
2022-08-17T22:27:46.298Z,93.58
2022-08-17T22:32:49.259Z,93.70
2022-08-17T22:37:51.640Z,93.64
2022-08-17T22:42:53.496Z,94.16
2022-08-17T22:48:01.948Z,93.98
2022-08-17T22:53:34.041Z,94.27
2022-08-17T22:59:02.347Z,94.33
2022-08-17T23:04:11.547Z,94.71
2022-08-17T23:09:13.183Z,94.64
2022-08-17T23:14:15.819Z,94.87
2022-08-17T23:19:20.863Z,95.21
2022-08-17T23:24:26.177Z,95.33
2022-08-17T23:29:29.389Z,95.58
2022-08-17T23:34:31.192Z,96.23
2022-08-17T23:39:32.957Z,96.23
2022-08-17T23:44:36.970Z,96.32
2022-08-17T23:49:40.288Z,96.65
2022-08-17T23:54:46.409Z,97.06
2022-08-17T23:59:48.736Z,96.88
